createdAt,value
2023-04-07T00:00:35.433Z,7.86
2023-04-07T00:02:22.628Z,7.90
2023-04-07T00:04:08.753Z,7.91
2023-04-07T00:05:56.414Z,7.95
2023-04-07T00:07:44.926Z,7.87
2023-04-07T00:09:38.624Z,7.86
2023-04-07T00:11:24.488Z,7.88
2023-04-07T00:13:04.446Z,7.85
2023-04-07T00:14:50.661Z,7.85
2023-04-07T00:16:37.429Z,7.81
2023-04-07T00:18:17.264Z,7.82
2023-04-07T00:20:03.678Z,7.85
2023-04-07T00:21:51.458Z,7.81
2023-04-07T00:23:31.855Z,7.85
2023-04-07T00:25:18.700Z,7.83
2023-04-07T00:27:04.497Z,7.82
2023-04-07T00:28:44.435Z,7.75
2023-04-07T00:30:30.678Z,7.77
2023-04-07T00:32:17.477Z,7.74
2023-04-07T00:33:57.947Z,7.76
2023-04-07T00:35:51.542Z,7.79
2023-04-07T00:37:46.444Z,7.84
2023-04-07T00:39:27.755Z,7.80
2023-04-07T00:41:20.523Z,7.86
2023-04-07T00:43:00.642Z,7.88
2023-04-07T00:44:47.473Z,7.90
2023-04-07T00:46:34.567Z,7.92
2023-04-07T00:48:14.689Z,7.93
2023-04-07T00:50:01.374Z,7.87
2023-04-07T00:51:48.511Z,7.94
2023-04-07T00:53:29.711Z,7.94
2023-04-07T00:55:16.610Z,7.90
2023-04-07T00:57:04.669Z,7.91
2023-04-07T00:58:44.674Z,7.92
2023-04-07T01:00:34.672Z,7.91
2023-04-07T01:02:25.666Z,7.89
2023-04-07T01:04:37.652Z,7.85
2023-04-07T01:06:27.570Z,7.85
2023-04-07T01:08:27.485Z,7.85
2023-04-07T01:10:31.679Z,7.85
2023-04-07T01:12:34.664Z,7.80
2023-04-07T01:14:19.935Z,7.74
2023-04-07T01:16:16.783Z,7.64
2023-04-07T01:18:10.498Z,7.64
2023-04-07T01:20:16.436Z,7.61
2023-04-07T01:22:14.153Z,7.59
2023-04-07T01:24:36.623Z,7.54
2023-04-07T01:26:27.765Z,7.56
2023-04-07T01:28:36.519Z,7.50
2023-04-07T01:30:41.640Z,7.54
2023-04-07T01:32:42.538Z,7.47
2023-04-07T01:34:33.012Z,7.45
2023-04-07T01:36:20.976Z,7.44
2023-04-07T01:38:08.564Z,7.40
2023-04-07T01:39:48.376Z,7.38
2023-04-07T01:41:35.932Z,7.31
2023-04-07T01:43:23.489Z,7.31
2023-04-07T01:45:04.480Z,7.29
2023-04-07T01:46:52.971Z,7.27
2023-04-07T01:48:39.527Z,7.23
2023-04-07T01:50:41.560Z,7.19
2023-04-07T01:52:29.529Z,7.16
2023-04-07T01:54:23.566Z,7.11
2023-04-07T01:56:03.261Z,7.13
2023-04-07T01:57:57.789Z,7.07
2023-04-07T01:59:57.490Z,7.02
2023-04-07T02:02:09.567Z,6.96
2023-04-07T02:04:08.788Z,6.89
2023-04-07T02:05:56.898Z,6.81
2023-04-07T02:07:57.578Z,6.77
2023-04-07T02:09:39.795Z,6.70
2023-04-07T02:11:27.540Z,6.70
2023-04-07T02:13:20.520Z,6.66
2023-04-07T02:15:09.262Z,6.62
2023-04-07T02:16:49.266Z,6.63
2023-04-07T02:18:39.567Z,6.60
2023-04-07T02:20:27.850Z,6.56
2023-04-07T02:22:07.835Z,6.54
2023-04-07T02:23:54.810Z,6.49
2023-04-07T02:25:40.828Z,6.48
2023-04-07T02:27:20.648Z,6.46
2023-04-07T02:29:07.587Z,6.43
2023-04-07T02:30:55.841Z,6.38
2023-04-07T02:32:35.437Z,6.35
2023-04-07T02:34:23.555Z,6.28
2023-04-07T02:36:09.896Z,6.17
2023-04-07T02:37:50.040Z,6.11
2023-04-07T02:39:35.563Z,6.08
2023-04-07T02:41:21.863Z,5.98
2023-04-07T02:43:01.605Z,5.97
2023-04-07T02:44:47.562Z,5.98
2023-04-07T02:46:34.126Z,5.89
2023-04-07T02:48:14.411Z,5.88
2023-04-07T02:50:02.590Z,5.85
2023-04-07T02:51:48.898Z,5.79
2023-04-07T02:53:27.389Z,5.78
2023-04-07T02:55:15.625Z,5.77
2023-04-07T02:57:02.333Z,5.71
2023-04-07T02:58:42.433Z,5.61
